Time;durP1;ratioP1;P1;durP2;ratioP2;P2;SDS_P1;SDS_P2;PMS_P1;PMS_P2;Temp;Humidity;BMP_temperature;BMP_pressure;BME280_temperature;BME280_humidity;BME280_pressure;Samples;Min_cycle;Max_cycle;Signal;HPM_P1;HPM_P2
2022/09/11 00:01:07;;;;;;;29.58;24.63;;;16.10;99.90;;;;;;5161470;27;20069;-71
2022/09/11 00:03:34;;;;;;;31.33;24.58;;;16.10;99.90;;;;;;5168398;27;20073;-71
2022/09/11 00:06:09;;;;;;;31.50;24.77;;;16.10;99.90;;;;;;5161853;27;20154;-71
2022/09/11 00:08:36;;;;;;;27.95;23.42;;;16.10;99.90;;;;;;5156631;27;20053;-71
2022/09/11 00:11:06;;;;;;;28.38;24.17;;;16.20;99.90;;;;;;5120919;27;20083;-71
2022/09/11 00:13:32;;;;;;;30.95;24.60;;;16.10;99.90;;;;;;5155195;27;20498;-71
2022/09/11 00:15:58;;;;;;;32.40;25.73;;;16.20;99.90;;;;;;5175867;27;20038;-71
2022/09/11 00:18:23;;;;;;;32.15;23.98;;;16.20;99.90;;;;;;5155785;27;20082;-71
2022/09/11 00:20:51;;;;;;;29.50;22.98;;;16.20;99.90;;;;;;5159111;27;20501;-71
2022/09/11 00:23:18;;;;;;;27.80;23.60;;;16.20;99.90;;;;;;5168812;27;20503;-71
2022/09/11 00:25:45;;;;;;;27.23;23.10;;;16.20;99.90;;;;;;5138086;27;20060;-71
2022/09/11 00:28:19;;;;;;;28.52;23.83;;;16.10;99.90;;;;;;5168766;27;20121;-71
2022/09/11 00:30:46;;;;;;;29.30;22.42;;;16.10;99.90;;;;;;5173099;27;20474;-71
2022/09/11 00:33:14;;;;;;;28.48;22.40;;;16.10;99.90;;;;;;5149041;27;20049;-71
2022/09/11 00:35:40;;;;;;;29.20;23.35;;;16.10;99.90;;;;;;5166289;27;20125;-71
2022/09/11 00:38:07;;;;;;;27.38;22.83;;;16.60;99.90;;;;;;5151213;27;20074;-71
2022/09/11 00:40:50;;;;;;;28.25;22.38;;;16.80;99.90;;;;;;5159216;27;20038;-71
2022/09/11 00:43:16;;;;;;;30.83;23.38;;;16.00;99.90;;;;;;5136055;27;20050;-71
2022/09/11 00:45:44;;;;;;;29.88;23.88;;;16.10;99.90;;;;;;5172779;27;20042;-71
2022/09/11 00:48:16;;;;;;;29.98;23.08;;;16.20;99.90;;;;;;5149194;27;20041;-71
2022/09/11 00:50:43;;;;;;;31.80;21.92;;;16.00;99.90;;;;;;5122322;27;20073;-71
2022/09/11 00:53:10;;;;;;;27.00;22.65;;;16.00;99.90;;;;;;5168058;27;20027;-71
2022/09/11 00:55:39;;;;;;;27.23;22.65;;;16.00;99.90;;;;;;5170879;27;20078;-71
2022/09/11 00:58:09;;;;;;;27.15;22.55;;;15.90;99.90;;;;;;5173219;27;20470;-71
2022/09/11 01:00:38;;;;;;;25.38;22.20;;;15.90;99.90;;;;;;5137340;27;20443;-71
2022/09/11 01:03:04;;;;;;;25.58;21.48;;;15.80;99.90;;;;;;5175847;27;20054;-71
2022/09/11 01:05:33;;;;;;;26.35;21.67;;;15.80;99.90;;;;;;5173961;27;20034;-71
2022/09/11 01:08:02;;;;;;;24.98;21.83;;;15.80;99.90;;;;;;5159762;27;20159;-72
2022/09/11 01:10:44;;;;;;;24.90;21.75;;;15.70;99.90;;;;;;5173306;27;20398;-71
2022/09/11 01:13:26;;;;;;;27.25;21.48;;;15.70;99.90;;;;;;5124284;27;20145;-71
2022/09/11 01:16:23;;;;;;;27.80;22.55;;;15.70;99.90;;;;;;5138168;27;20496;-71
2022/09/11 01:19:04;;;;;;;28.98;21.80;;;15.70;99.90;;;;;;5152891;27;20062;-71
2022/09/11 01:21:51;;;;;;;25.58;20.60;;;15.70;99.90;;;;;;5171300;27;20034;-71
2022/09/11 01:24:22;;;;;;;28.10;22.33;;;15.60;99.90;;;;;;5146875;27;20050;-71
2022/09/11 01:27:20;;;;;;;28.08;21.70;;;15.60;99.90;;;;;;5173181;27;20367;-72
2022/09/11 01:30:07;;;;;;;26.65;21.33;;;15.60;99.90;;;;;;5132864;27;20039;-71
2022/09/11 01:32:53;;;;;;;27.88;20.75;;;15.60;99.90;;;;;;5166814;27;20168;-71
2022/09/11 01:35:37;;;;;;;28.13;20.95;;;15.60;99.90;;;;;;5170719;27;20065;-71
2022/09/11 01:38:08;;;;;;;24.85;20.55;;;15.60;99.90;;;;;;5133984;27;20092;-72
2022/09/11 01:41:12;;;;;;;27.75;22.02;;;15.70;99.90;;;;;;5150955;27;20057;-71
2022/09/11 01:43:43;;;;;;;24.02;21.05;;;15.60;99.90;;;;;;5142894;27;20050;-71
2022/09/11 01:46:09;;;;;;;25.60;21.00;;;15.60;99.90;;;;;;5150512;27;20390;-71
2022/09/11 01:48:41;;;;;;;26.27;20.17;;;15.50;99.90;;;;;;5169432;27;20050;-72
2022/09/11 01:51:11;;;;;;;25.10;20.42;;;15.50;99.90;;;;;;5154137;27;20049;-71
2022/09/11 01:53:39;;;;;;;25.15;19.65;;;15.50;99.90;;;;;;5156174;27;20073;-71
2022/09/11 01:56:09;;;;;;;25.00;20.13;;;15.50;99.90;;;;;;5173260;27;20105;-71
2022/09/11 01:58:36;;;;;;;23.02;20.52;;;15.50;99.90;;;;;;5164724;27;20049;-71
2022/09/11 02:01:18;;;;;;;26.77;20.40;;;16.10;99.90;;;;;;5170686;27;20133;-71
2022/09/11 02:04:04;;;;;;;23.90;20.10;;;15.50;99.90;;;;;;5160998;27;20125;-71
2022/09/11 02:06:38;;;;;;;25.65;20.08;;;15.40;99.90;;;;;;5133153;28;20087;-71
2022/09/11 02:09:12;;;;;;;27.47;19.70;;;15.40;99.90;;;;;;5145964;27;20030;-71
2022/09/11 02:11:41;;;;;;;26.58;19.90;;;15.60;99.90;;;;;;5154043;27;20128;-71
2022/09/11 02:14:16;;;;;;;27.25;20.63;;;15.40;99.90;;;;;;5143338;27;20042;-71
2022/09/11 02:16:52;;;;;;;26.98;20.98;;;15.40;99.90;;;;;;5163783;27;20121;-71
2022/09/11 02:19:19;;;;;;;;;;;15.30;99.90;;;;;;5132318;27;20122;-71
2022/09/11 02:21:49;;;;;;;26.45;19.80;;;15.30;99.90;;;;;;5171419;27;19925;-71
2022/09/11 02:24:16;;;;;;;26.17;19.98;;;15.30;99.90;;;;;;5163725;27;20055;-71
2022/09/11 02:26:48;;;;;;;25.80;19.33;;;15.40;99.90;;;;;;5159893;27;20116;-72
2022/09/11 02:29:14;;;;;;;26.83;20.15;;;15.30;99.90;;;;;;5166997;27;20418;-71
2022/09/11 02:31:41;;;;;;;26.27;19.63;;;15.40;99.90;;;;;;5156512;27;20467;-71
2022/09/11 02:34:08;;;;;;;24.45;19.30;;;16.10;99.90;;;;;;5172821;27;20054;-71
2022/09/11 02:36:44;;;;;;;26.33;19.88;;;15.20;99.90;;;;;;5161944;27;20130;-71
2022/09/11 02:39:28;;;;;;;25.58;20.10;;;15.30;99.90;;;;;;5147000;27;20129;-71
2022/09/11 02:42:34;;;;;;;23.48;18.92;;;15.20;99.90;;;;;;5122283;27;20436;-71
2022/09/11 02:45:08;;;;;;;24.98;18.92;;;15.20;99.90;;;;;;5160793;27;20390;-71
2022/09/11 02:47:54;;;;;;;21.63;18.92;;;15.20;99.90;;;;;;5153940;27;20370;-71
2022/09/11 02:50:38;;;;;;;26.65;20.30;;;15.20;99.90;;;;;;5170017;27;20042;-71
2022/09/11 02:53:06;;;;;;;24.80;19.88;;;15.30;99.90;;;;;;5133131;27;20056;-71
2022/09/11 02:55:47;;;;;;;22.42;19.35;;;15.20;99.90;;;;;;5140675;27;20051;-71
2022/09/11 02:58:20;;;;;;;22.52;18.38;;;15.30;99.90;;;;;;5139002;27;20103;-71
2022/09/11 03:00:46;;;;;;;24.23;19.63;;;15.30;99.90;;;;;;5173522;27;20053;-71
2022/09/11 03:03:13;;;;;;;22.13;18.33;;;15.30;99.90;;;;;;5146424;27;20043;-71
2022/09/11 03:05:39;;;;;;;22.83;18.48;;;15.30;99.90;;;;;;5175861;27;20073;-71
2022/09/11 03:08:06;;;;;;;25.20;19.48;;;15.20;99.90;;;;;;5154416;27;20386;-71
2022/09/11 03:10:32;;;;;;;24.38;18.75;;;15.30;99.90;;;;;;5172103;27;20042;-71
2022/09/11 03:12:58;;;;;;;22.20;18.48;;;15.30;99.90;;;;;;5142915;27;20046;-71
2022/09/11 03:15:24;;;;;;;23.25;18.48;;;15.20;99.90;;;;;;5168295;27;20031;-71
2022/09/11 03:17:50;;;;;;;22.90;17.80;;;15.20;99.90;;;;;;5141059;27;20437;-71
2022/09/11 03:20:16;;;;;;;21.63;18.10;;;16.00;99.90;;;;;;5175982;27;20038;-71
2022/09/11 03:22:42;;;;;;;25.17;18.10;;;15.20;99.90;;;;;;5168971;27;20035;-71
2022/09/11 03:25:09;;;;;;;20.40;17.73;;;15.50;99.90;;;;;;5169071;27;20042;-71
2022/09/11 03:27:37;;;;;;;20.75;17.65;;;15.20;99.90;;;;;;5161543;27;20035;-71
2022/09/11 03:30:03;;;;;;;20.20;17.42;;;15.10;99.90;;;;;;5154988;27;20093;-71
2022/09/11 03:32:30;;;;;;;21.67;17.20;;;15.10;99.90;;;;;;5149531;27;20077;-71
2022/09/11 03:34:56;;;;;;;19.13;16.50;;;15.10;99.90;;;;;;5163713;27;20146;-71
2022/09/11 03:37:22;;;;;;;21.58;17.50;;;15.30;99.90;;;;;;5156802;27;20102;-71
2022/09/11 03:39:47;;;;;;;20.08;16.88;;;15.10;99.90;;;;;;5169304;27;20046;-71
2022/09/11 03:42:13;;;;;;;22.90;17.77;;;15.10;99.90;;;;;;5177053;27;20042;-71
2022/09/11 03:44:40;;;;;;;20.75;16.52;;;15.10;99.90;;;;;;5162091;27;20039;-71
2022/09/11 03:47:06;;;;;;;20.08;16.60;;;15.10;99.90;;;;;;5137982;27;20347;-71
2022/09/11 03:49:31;;;;;;;20.08;15.88;;;15.10;99.90;;;;;;5147919;27;20042;-71
2022/09/11 03:51:57;;;;;;;18.20;16.15;;;15.10;99.90;;;;;;5162068;27;20051;-71
2022/09/11 03:54:22;;;;;;;21.00;17.17;;;15.00;99.90;;;;;;5173381;27;20038;-71
2022/09/11 03:56:48;;;;;;;21.85;16.45;;;15.10;99.90;;;;;;5160061;27;20455;-71
2022/09/11 03:59:14;;;;;;;22.23;16.80;;;15.00;99.90;;;;;;5172437;27;20082;-72
2022/09/11 04:01:39;;;;;;;20.80;16.10;;;15.00;99.90;;;;;;5150089;27;20037;-71
2022/09/11 04:04:05;;;;;;;21.30;16.58;;;15.50;99.90;;;;;;5165318;27;20035;-71
2022/09/11 04:06:31;;;;;;;17.55;15.55;;;15.00;99.90;;;;;;5157211;27;20126;-71
2022/09/11 04:08:57;;;;;;;20.60;16.70;;;15.00;99.90;;;;;;5159467;27;20042;-71
2022/09/11 04:11:23;;;;;;;21.92;16.73;;;15.70;99.90;;;;;;5173529;27;20087;-71
2022/09/11 04:13:50;;;;;;;19.27;16.45;;;15.00;99.90;;;;;;5157191;27;20038;-71
2022/09/11 04:16:19;;;;;;;18.52;15.75;;;15.00;99.90;;;;;;5175096;27;20049;-71
2022/09/11 04:18:45;;;;;;;17.77;15.23;;;15.20;99.90;;;;;;5154774;27;20073;-71
2022/09/11 04:21:14;;;;;;;21.25;16.85;;;15.00;99.90;;;;;;5176355;27;20071;-71
2022/09/11 04:23:40;;;;;;;19.73;17.00;;;15.00;99.90;;;;;;5175027;27;20167;-71
2022/09/11 04:26:17;;;;;;;25.42;16.85;;;14.90;99.90;;;;;;5168865;27;20035;-71
2022/09/11 04:28:43;;;;;;;20.75;16.42;;;15.00;99.90;;;;;;5159872;27;20045;-71
2022/09/11 04:31:10;;;;;;;19.65;15.90;;;15.90;99.90;;;;;;5133394;27;20086;-71
2022/09/11 04:33:36;;;;;;;18.95;15.40;;;14.90;99.90;;;;;;5154089;27;20137;-71
2022/09/11 04:36:07;;;;;;;18.80;15.52;;;15.00;99.90;;;;;;5163118;27;20149;-71
2022/09/11 04:38:32;;;;;;;18.77;15.45;;;14.90;99.90;;;;;;5158832;27;20121;-71
2022/09/11 04:41:03;;;;;;;17.20;15.38;;;15.00;99.90;;;;;;5155544;27;20126;-71
2022/09/11 04:43:30;;;;;;;17.75;14.70;;;14.90;99.90;;;;;;5174732;27;20046;-71
2022/09/11 04:46:07;;;;;;;22.13;17.15;;;15.00;99.90;;;;;;5159462;27;20042;-71
2022/09/11 04:48:32;;;;;;;17.98;15.80;;;15.10;99.90;;;;;;5169243;27;20104;-71
2022/09/11 04:51:00;;;;;;;21.02;15.65;;;15.60;99.90;;;;;;5160757;27;20026;-71
2022/09/11 04:53:27;;;;;;;19.25;15.57;;;14.90;99.90;;;;;;5156124;27;20038;-71
2022/09/11 04:56:12;;;;;;;17.67;15.63;;;14.90;99.90;;;;;;5155899;27;20035;-71
2022/09/11 04:58:39;;;;;;;18.92;15.38;;;15.30;99.90;;;;;;5154941;27;20058;-71
2022/09/11 05:01:09;;;;;;;19.42;15.25;;;15.00;99.90;;;;;;5171751;27;20042;-71
2022/09/11 05:03:35;;;;;;;19.63;15.73;;;15.00;99.90;;;;;;5136429;27;20536;-71
2022/09/11 05:06:09;;;;;;;19.63;16.52;;;15.30;99.90;;;;;;5162208;27;20034;-71
2022/09/11 05:08:35;;;;;;;25.30;15.52;;;15.00;99.90;;;;;;5167375;27;20512;-72
2022/09/11 05:11:04;;;;;;;19.75;15.45;;;14.90;99.90;;;;;;5154682;27;20118;-71
2022/09/11 05:13:30;;;;;;;19.55;15.45;;;14.90;99.90;;;;;;5170658;27;20074;-71
2022/09/11 05:16:18;;;;;;;17.08;14.20;;;14.90;99.90;;;;;;5154736;27;20034;-71
2022/09/11 05:18:50;;;;;;;16.90;14.70;;;14.90;99.90;;;;;;5155017;27;20052;-71
2022/09/11 05:21:17;;;;;;;19.67;14.73;;;15.80;99.90;;;;;;5151176;27;20038;-71
2022/09/11 05:23:46;;;;;;;17.40;14.98;;;15.60;99.90;;;;;;5138567;27;20479;-71
2022/09/11 05:26:21;;;;;;;17.92;15.13;;;15.00;99.90;;;;;;5155589;27;20042;-71
2022/09/11 05:28:47;;;;;;;18.15;15.80;;;14.90;99.90;;;;;;5171927;27;20436;-71
2022/09/11 05:31:15;;;;;;;18.65;15.48;;;15.00;99.90;;;;;;5155744;27;20042;-71
2022/09/11 05:33:42;;;;;;;17.85;15.38;;;14.90;99.90;;;;;;5155674;27;20061;-71
2022/09/11 05:36:09;;;;;;;17.38;14.70;;;15.00;99.90;;;;;;5155930;27;20126;-71
2022/09/11 05:38:35;;;;;;;19.92;15.32;;;15.30;99.90;;;;;;5157070;27;20465;-71
2022/09/11 05:41:04;;;;;;;16.40;14.63;;;15.00;99.90;;;;;;5172979;27;20061;-71
2022/09/11 05:43:34;;;;;;;16.95;14.80;;;15.00;99.90;;;;;;5170451;27;20031;-71
2022/09/11 05:46:00;;;;;;;18.27;14.50;;;15.10;99.90;;;;;;5144959;27;20193;-71
2022/09/11 05:48:30;;;;;;;16.52;14.35;;;15.00;99.90;;;;;;5175491;27;20034;-71
2022/09/11 05:51:05;;;;;;;15.98;13.27;;;15.50;99.90;;;;;;5149787;27;20038;-71
2022/09/11 05:53:32;;;;;;;;;;;15.10;99.90;;;;;;5148944;27;20034;-71
2022/09/11 05:56:04;;;;;;;19.25;14.07;;;15.00;99.90;;;;;;5154301;27;19925;-71
2022/09/11 05:58:31;;;;;;;15.60;13.90;;;15.40;99.90;;;;;;5149218;27;20129;-71
2022/09/11 06:01:08;;;;;;;15.93;12.88;;;15.30;99.90;;;;;;5166409;27;20079;-71
2022/09/11 06:03:35;;;;;;;15.00;12.82;;;15.10;99.90;;;;;;5142140;27;20121;-71
2022/09/11 06:06:05;;;;;;;14.48;12.52;;;15.10;99.90;;;;;;5172928;27;20393;-71
2022/09/11 06:08:33;;;;;;;14.20;12.70;;;15.10;99.90;;;;;;5175548;27;20085;-72
2022/09/11 06:11:00;;;;;;;14.50;12.73;;;15.20;99.90;;;;;;5161193;27;20039;-72
2022/09/11 06:13:32;;;;;;;17.83;13.15;;;15.20;99.90;;;;;;5133430;27;20040;-73
2022/09/11 06:15:58;;;;;;;13.43;12.00;;;15.20;99.90;;;;;;5140921;27;20045;-72
2022/09/11 06:18:24;;;;;;;13.32;11.93;;;15.90;99.90;;;;;;5154043;27;20042;-71
2022/09/11 06:20:58;;;;;;;13.68;11.63;;;15.30;99.90;;;;;;5153954;27;20034;-72
2022/09/11 06:23:24;;;;;;;15.45;12.07;;;15.40;99.90;;;;;;5152383;27;20047;-73
2022/09/11 06:25:49;;;;;;;14.25;11.65;;;15.40;99.90;;;;;;5154748;27;20038;-72
2022/09/11 06:28:15;;;;;;;14.88;11.32;;;15.40;99.90;;;;;;5135013;27;20047;-72
2022/09/11 06:30:41;;;;;;;14.90;11.45;;;15.50;99.90;;;;;;5157063;27;20475;-72
2022/09/11 06:33:06;;;;;;;15.45;11.88;;;15.50;99.90;;;;;;5150870;27;20070;-72
2022/09/11 06:35:32;;;;;;;13.32;11.50;;;15.60;99.90;;;;;;5117457;27;20074;-72
2022/09/11 06:37:58;;;;;;;13.68;12.20;;;15.70;99.90;;;;;;5101888;27;20085;-73
2022/09/11 06:40:24;;;;;;;12.38;11.13;;;15.80;99.90;;;;;;5149382;27;20471;-72
2022/09/11 06:42:50;;;;;;;12.48;11.18;;;16.00;99.90;;;;;;5157760;27;20061;-72
2022/09/11 06:45:16;;;;;;;12.13;10.68;;;16.10;99.90;;;;;;5157486;27;20038;-72
2022/09/11 06:47:43;;;;;;;12.75;10.15;;;16.30;99.90;;;;;;5157930;27;20046;-72
2022/09/11 06:50:10;;;;;;;12.10;10.80;;;16.40;99.90;;;;;;5158854;27;20050;-72
2022/09/11 06:52:36;;;;;;;11.75;10.05;;;16.50;99.90;;;;;;5157672;27;20128;-73
2022/09/11 06:55:03;;;;;;;17.33;10.88;;;16.90;99.90;;;;;;5157715;27;20078;-72
2022/09/11 06:57:29;;;;;;;11.25;9.63;;;17.40;99.90;;;;;;5157637;27;20062;-73
2022/09/11 06:59:56;;;;;;;11.00;8.65;;;19.60;99.90;;;;;;5140144;27;20050;-72
2022/09/11 07:02:23;;;;;;;10.55;8.30;;;21.90;99.90;;;;;;5157001;27;20498;-73
2022/09/11 07:04:48;;;;;;;7.80;6.53;;;23.90;99.90;;;;;;5157600;27;20052;-73
2022/09/11 07:07:14;;;;;;;7.35;6.00;;;25.60;99.90;;;;;;5163811;27;20034;-73
2022/09/11 07:09:39;;;;;;;8.00;5.78;;;27.10;99.90;;;;;;5126198;27;20067;-73
2022/09/11 07:12:05;;;;;;;9.38;5.90;;;28.30;99.90;;;;;;5152407;27;20042;-73
2022/09/11 07:14:31;;;;;;;7.60;6.20;;;28.50;99.90;;;;;;5149011;27;20118;-73
2022/09/11 07:16:57;;;;;;;7.80;5.80;;;27.20;99.90;;;;;;5156996;27;20146;-73
2022/09/11 07:19:24;;;;;;;8.32;5.80;;;25.90;99.90;;;;;;5157199;27;20122;-73
2022/09/11 07:21:50;;;;;;;6.97;6.28;;;24.80;99.90;;;;;;5156897;27;20458;-73
2022/09/11 07:24:16;;;;;;;8.27;6.30;;;23.90;99.90;;;;;;5157208;27;20063;-73
2022/09/11 07:26:42;;;;;;;7.28;6.43;;;23.10;99.90;;;;;;5155613;27;20474;-73
2022/09/11 07:29:07;;;;;;;6.93;6.00;;;22.60;99.90;;;;;;5156871;27;20047;-73
2022/09/11 07:31:36;;;;;;;7.68;6.07;;;22.10;99.90;;;;;;5156191;27;20096;-73
2022/09/11 07:34:02;;;;;;;9.15;6.40;;;21.80;99.90;;;;;;5155581;27;20047;-73
2022/09/11 07:36:32;;;;;;;8.07;6.85;;;21.60;99.90;;;;;;5156583;27;20042;-73
2022/09/11 07:38:58;;;;;;;8.10;7.00;;;21.30;99.90;;;;;;5140760;27;20051;-71
2022/09/11 07:41:25;;;;;;;8.52;6.68;;;21.00;99.90;;;;;;5152714;27;20031;-71
2022/09/11 07:43:55;;;;;;;8.30;6.82;;;20.90;99.90;;;;;;5171101;27;20104;-71
2022/09/11 07:46:22;;;;;;;8.15;6.30;;;20.80;99.90;;;;;;5176980;27;20046;-71
2022/09/11 07:48:48;;;;;;;9.50;6.57;;;20.80;99.90;;;;;;5177551;27;20053;-71
2022/09/11 07:51:17;;;;;;;10.68;6.78;;;20.70;99.90;;;;;;5163418;27;20517;-71
2022/09/11 07:53:45;;;;;;;8.00;6.47;;;20.60;99.90;;;;;;5126235;27;20042;-71
2022/09/11 07:56:14;;;;;;;10.10;6.68;;;20.60;99.90;;;;;;5137410;27;20039;-72
2022/09/11 07:58:41;;;;;;;7.78;5.97;;;20.60;99.90;;;;;;5154991;27;20498;-72
2022/09/11 08:01:10;;;;;;;10.63;5.90;;;20.60;99.90;;;;;;5155936;27;20057;-72
2022/09/11 08:03:36;;;;;;;7.28;5.35;;;20.60;99.90;;;;;;5156232;27;20392;-72
2022/09/11 08:06:06;;;;;;;9.65;5.50;;;20.60;99.90;;;;;;5158283;27;20038;-72
2022/09/11 08:08:32;;;;;;;6.65;5.05;;;20.60;99.90;;;;;;5160293;27;20191;-71
2022/09/11 08:11:04;;;;;;;7.43;4.70;;;20.60;99.90;;;;;;5154962;27;20039;-71
2022/09/11 08:13:30;;;;;;;7.00;4.60;;;20.70;99.90;;;;;;5137563;27;20365;-71
2022/09/11 08:15:55;;;;;;;6.72;3.78;;;20.70;99.90;;;;;;5171660;27;20122;-72
2022/09/11 08:18:22;;;;;;;8.85;4.00;;;20.90;99.90;;;;;;5142663;27;20031;-72
2022/09/11 08:20:48;;;;;;;8.95;3.65;;;21.00;99.90;;;;;;5150979;27;20406;-78
2022/09/11 08:23:14;;;;;;;7.85;3.95;;;21.10;99.90;;;;;;5160464;27;20133;-78
2022/09/11 08:25:40;;;;;;;7.35;3.15;;;21.20;99.90;;;;;;5155355;27;20463;-78
2022/09/11 08:28:06;;;;;;;6.47;2.38;;;21.30;99.90;;;;;;5176390;27;20063;-78
2022/09/11 08:30:33;;;;;;;6.53;2.55;;;21.40;99.90;;;;;;5157149;27;20486;-78
2022/09/11 08:33:00;;;;;;;9.88;2.80;;;21.50;99.90;;;;;;5164846;27;20080;-78
2022/09/11 08:35:26;;;;;;;4.57;2.55;;;21.70;99.90;;;;;;5137431;27;20159;-78
2022/09/11 08:37:54;;;;;;;4.43;2.20;;;21.90;99.90;;;;;;5165870;27;20168;-78
2022/09/11 08:40:20;;;;;;;5.03;2.38;;;22.20;99.90;;;;;;5155349;27;20525;-78
2022/09/11 08:42:46;;;;;;;5.90;2.25;;;22.10;99.90;;;;;;5140051;27;20042;-78
2022/09/11 08:45:18;;;;;;;4.75;2.20;;;22.00;99.90;;;;;;5138780;27;20091;-77
2022/09/11 08:47:50;;;;;;;6.50;2.40;;;21.90;99.90;;;;;;5133544;27;20485;-77
2022/09/11 08:50:31;;;;;;;5.07;2.05;;;21.80;99.90;;;;;;5134404;27;20103;-77
2022/09/11 08:53:00;;;;;;;5.15;2.42;;;21.90;99.90;;;;;;5162459;27;20030;-78
2022/09/11 08:55:38;;;;;;;4.88;2.40;;;21.90;99.90;;;;;;5155411;27;20050;-77
2022/09/11 08:58:17;;;;;;;5.15;2.10;;;21.80;99.90;;;;;;5154914;27;20043;-78
2022/09/11 09:01:04;;;;;;;4.47;2.03;;;21.80;99.90;;;;;;5168845;27;20038;-78
2022/09/11 09:03:55;;;;;;;4.75;2.00;;;21.80;99.90;;;;;;5161927;27;20038;-77
2022/09/11 09:06:40;;;;;;;6.78;2.05;;;22.00;99.90;;;;;;5154485;27;20053;-77
2022/09/11 09:09:54;;;;;;;4.85;1.98;;;22.40;99.90;;;;;;5156680;27;20440;-77
2022/09/11 09:12:33;;;;;;;3.55;1.58;;;22.70;99.90;;;;;;5143675;27;20439;-77
2022/09/11 09:15:44;;;;;;;3.92;1.80;;;23.20;99.90;;;;;;5157474;27;20312;-77
2022/09/11 09:18:22;;;;;;;5.50;1.90;;;23.50;99.90;;;;;;5107242;27;20050;-77
2022/09/11 09:21:01;;;;;;;3.55;1.50;;;23.80;99.90;;;;;;5133326;27;20050;-77
2022/09/11 09:23:36;;;;;;;3.90;1.42;;;24.00;99.90;;;;;;5140646;27;20321;-78
2022/09/11 09:26:01;;;;;;;4.10;1.50;;;24.40;99.90;;;;;;5112421;27;20061;-78
2022/09/11 09:28:45;;;;;;;5.88;1.70;;;24.70;99.90;;;;;;5133366;27;20495;-78
2022/09/11 09:31:16;;;;;;;4.15;1.40;;;25.00;99.90;;;;;;5141064;27;20478;-78
2022/09/11 09:34:14;;;;;;;3.90;1.42;;;25.30;99.90;;;;;;5143038;27;20054;-78
2022/09/11 09:37:12;;;;;;;3.50;1.48;;;25.60;99.90;;;;;;5119375;27;20086;-78
2022/09/11 09:39:38;;;;;;;2.08;1.42;;;25.90;99.90;;;;;;5154263;27;20051;-78
2022/09/11 09:42:20;;;;;;;2.58;1.42;;;26.10;99.90;;;;;;5153310;27;20394;-78
2022/09/11 09:45:10;;;;;;;4.38;1.30;;;26.20;99.90;;;;;;5154123;27;20047;-78
2022/09/11 09:47:40;;;;;;;3.30;1.30;;;26.20;99.90;;;;;;5170465;27;20196;-77
2022/09/11 09:50:18;;;;;;;4.40;1.50;;;26.00;99.90;;;;;;5175030;27;20167;-78
2022/09/11 09:52:45;;;;;;;4.30;1.30;;;25.80;99.90;;;;;;5135281;27;20213;-78
2022/09/11 09:55:17;;;;;;;4.32;1.35;;;25.30;99.90;;;;;;5133654;27;20039;-78
2022/09/11 09:57:43;;;;;;;2.40;1.40;;;25.00;99.90;;;;;;5130960;27;20070;-78
2022/09/11 10:00:08;;;;;;;4.22;1.70;;;24.80;99.90;;;;;;5154733;27;20488;-78
2022/09/11 10:02:48;;;;;;;3.80;2.03;;;24.60;99.90;;;;;;5138157;27;20030;-77
2022/09/11 10:05:25;;;;;;;4.00;2.00;;;24.30;99.90;;;;;;5144385;27;20117;-75
2022/09/11 10:07:53;;;;;;;7.25;2.72;;;23.90;99.90;;;;;;5151047;27;20039;-78
2022/09/11 10:10:27;;;;;;;4.97;2.30;;;23.50;99.90;;;;;;5160373;27;20065;-78
2022/09/11 10:13:04;;;;;;;6.05;2.58;;;23.40;99.90;;;;;;5131961;27;20047;-78
2022/09/11 10:15:37;;;;;;;6.47;2.40;;;23.10;99.90;;;;;;5134406;27;20130;-78
2022/09/11 10:18:31;;;;;;;5.82;2.47;;;22.70;99.90;;;;;;5155308;27;20057;-79
2022/09/11 10:21:12;;;;;;;5.38;2.45;;;22.50;99.90;;;;;;5173493;27;20535;-77
2022/09/11 10:23:58;;;;;;;4.95;2.28;;;22.30;99.90;;;;;;5171436;27;20104;-77
2022/09/11 10:26:30;;;;;;;6.10;2.60;;;22.40;99.90;;;;;;5170971;27;20048;-76
2022/09/11 10:29:06;;;;;;;6.13;2.05;;;22.10;99.90;;;;;;5169292;27;20045;-76
2022/09/11 10:31:33;;;;;;;5.28;2.33;;;21.90;99.90;;;;;;5151103;27;20114;-77
2022/09/11 10:33:59;;;;;;;5.43;2.10;;;21.90;99.90;;;;;;5152643;27;20510;-77
2022/09/11 10:36:27;;;;;;;4.88;2.00;;;21.80;99.90;;;;;;5152389;27;20137;-77
2022/09/11 10:38:56;;;;;;;5.60;2.40;;;21.80;99.90;;;;;;5152444;27;20521;-77
2022/09/11 10:41:24;;;;;;;6.07;2.40;;;21.70;99.90;;;;;;5171088;27;20106;-78
2022/09/11 10:44:09;;;;;;;5.10;2.40;;;21.70;99.90;;;;;;5152520;27;20083;-79
2022/09/11 10:46:40;;;;;;;5.80;2.50;;;21.80;99.90;;;;;;5170673;27;20065;-78
2022/09/11 10:49:21;;;;;;;4.85;2.38;;;21.80;99.90;;;;;;5170836;27;20054;-78
2022/09/11 10:52:08;;;;;;;5.22;2.25;;;21.90;99.90;;;;;;5160155;27;20046;-77
2022/09/11 10:54:55;;;;;;;6.57;2.50;;;21.90;99.90;;;;;;5150415;27;20050;-75
2022/09/11 10:57:44;;;;;;;6.78;2.70;;;22.10;99.90;;;;;;5146961;27;20042;-76
2022/09/11 11:00:20;;;;;;;5.97;2.50;;;22.30;99.90;;;;;;5129687;28;20130;-75
2022/09/11 11:02:53;;;;;;;4.63;2.50;;;22.60;99.90;;;;;;5132636;28;20092;-74
2022/09/11 11:05:30;;;;;;;5.03;2.20;;;23.10;99.90;;;;;;5119808;27;20372;-77
2022/09/11 11:08:11;;;;;;;5.18;2.30;;;23.70;99.90;;;;;;5149491;27;20073;-77
2022/09/11 11:10:43;;;;;;;6.00;1.92;;;24.30;99.90;;;;;;5161022;27;20050;-71
2022/09/11 11:13:22;;;;;;;5.07;2.00;;;24.90;99.90;;;;;;5155251;27;20196;-71
2022/09/11 11:16:15;;;;;;;5.65;2.03;;;25.20;99.90;;;;;;5161742;27;20054;-71
2022/09/11 11:19:02;;;;;;;3.92;2.00;;;25.30;99.90;;;;;;5168479;27;20461;-71
2022/09/11 11:21:36;;;;;;;5.82;2.20;;;25.50;99.90;;;;;;5155958;27;20459;-71
2022/09/11 11:24:25;;;;;;;3.65;2.03;;;25.40;99.90;;;;;;5135851;27;20055;-71
2022/09/11 11:27:14;;;;;;;3.88;1.60;;;25.20;99.90;;;;;;5132698;27;20050;-71
2022/09/11 11:29:55;;;;;;;4.03;1.65;;;24.90;99.90;;;;;;5135868;27;20148;-71
2022/09/11 11:32:51;;;;;;;4.40;1.73;;;24.70;99.90;;;;;;5135192;27;20055;-71
2022/09/11 11:35:33;;;;;;;5.07;1.80;;;24.50;99.90;;;;;;5117149;27;20506;-70
2022/09/11 11:38:08;;;;;;;4.20;1.70;;;24.40;99.90;;;;;;5117477;27;20379;-70
2022/09/11 11:40:45;;;;;;;;;;;24.30;99.90;;;;;;5135626;27;20051;-70
2022/09/11 11:43:12;;;;;;;4.57;1.65;;;24.10;99.90;;;;;;5135372;27;20367;-70
2022/09/11 11:45:41;;;;;;;3.45;1.60;;;23.90;99.90;;;;;;5135580;27;20235;-70
2022/09/11 11:48:16;;;;;;;4.10;1.55;;;23.90;99.90;;;;;;5135588;27;20122;-70
2022/09/11 11:50:49;;;;;;;3.70;1.63;;;23.80;99.90;;;;;;5135360;27;20075;-70
2022/09/11 11:53:27;;;;;;;4.93;1.80;;;23.60;99.90;;;;;;5135463;27;20407;-70
2022/09/11 11:56:07;;;;;;;4.72;1.60;;;23.60;99.90;;;;;;5135132;27;20031;-70
2022/09/11 11:58:48;;;;;;;2.30;1.45;;;23.50;99.90;;;;;;5117192;27;20070;-72
2022/09/11 12:01:30;;;;;;;6.15;1.90;;;23.40;99.90;;;;;;5135162;27;20402;-72
2022/09/11 12:04:08;;;;;;;3.50;1.50;;;23.50;99.90;;;;;;5135297;27;20054;-70
2022/09/11 12:06:34;;;;;;;2.95;1.35;;;23.60;99.90;;;;;;5135207;27;20107;-70
2022/09/11 12:09:01;;;;;;;3.60;1.70;;;23.90;99.90;;;;;;5135142;27;20066;-70
2022/09/11 12:11:31;;;;;;;3.70;1.45;;;24.60;99.90;;;;;;5134812;27;20107;-70
2022/09/11 12:13:58;;;;;;;5.15;1.90;;;25.60;99.90;;;;;;5117025;27;20415;-70
2022/09/11 12:16:31;;;;;;;5.03;1.80;;;27.00;99.90;;;;;;5134786;27;20096;-70
2022/09/11 12:19:26;;;;;;;3.92;1.65;;;29.00;99.90;;;;;;5140487;27;20199;-70
2022/09/11 12:21:52;;;;;;;3.60;1.63;;;31.40;98.70;;;;;;5136316;27;20148;-71
2022/09/11 12:24:20;;;;;;;2.63;1.63;;;33.10;95.00;;;;;;5135030;27;20100;-70
2022/09/11 12:27:06;;;;;;;4.57;1.80;;;34.50;93.00;;;;;;5131925;27;20374;-71
2022/09/11 12:29:54;;;;;;;2.90;1.42;;;35.60;91.20;;;;;;5134482;27;20498;-70
2022/09/11 12:32:27;;;;;;;4.60;1.50;;;37.00;90.60;;;;;;5133999;27;20051;-71
2022/09/11 12:34:53;;;;;;;6.38;1.60;;;38.10;85.00;;;;;;5115667;27;20047;-70
2022/09/11 12:37:31;;;;;;;3.92;1.52;;;38.50;83.00;;;;;;5134455;27;20046;-70
2022/09/11 12:40:19;;;;;;;3.90;1.38;;;39.00;81.30;;;;;;5134586;27;20133;-70
2022/09/11 12:42:54;;;;;;;3.50;1.20;;;39.30;80.60;;;;;;5115962;27;20120;-70
2022/09/11 12:45:37;;;;;;;2.38;1.30;;;39.60;75.90;;;;;;5133961;27;20587;-70
2022/09/11 12:48:13;;;;;;;3.05;1.20;;;39.90;75.60;;;;;;5134657;27;20039;-70
2022/09/11 12:50:39;;;;;;;3.72;1.40;;;40.10;73.70;;;;;;5133945;27;20035;-70
2022/09/11 12:53:14;;;;;;;2.33;1.20;;;39.50;73.30;;;;;;5134029;27;20039;-70
2022/09/11 12:55:56;;;;;;;2.88;1.30;;;38.40;73.10;;;;;;5133651;27;20035;-70
2022/09/11 12:58:29;;;;;;;4.57;1.65;;;36.60;74.60;;;;;;5134311;27;20054;-70
2022/09/11 13:01:12;;;;;;;3.25;1.60;;;35.20;76.60;;;;;;5114198;27;20043;-70